Warning: Javascript must be enabled to use all the features on this page!


Page Loading - Please Wait...

Click to hideNews Bulletins

Peak Streamflow for the Nation

USGS 02419000 UPHAPEE CREEK NEAR TUSKEGEE AL

Macon County, Alabama
Hydrologic Unit Code 03150110
Latitude  32°28'36", Longitude  85°41'42" NAD27
Drainage area 333.00  square miles
Contributing drainage area 333.00  square miles
Gage datum 223.65 feet above NGVD29
Output formats
Table
Graph
Tab-separated file
peakfq (watstore) format
Reselect output format
Water
Year
Date Gage
Height
(feet)
Stream-
flow
(cfs)
1929 1929 30.005,Bm 37,0002,7,Bm
1940 1940-07-04 15.30 7,300
1941 1941-08-14 15.80 7,900
1942 1942-03-22 20.67 13,300
1943 1943-03-21 27.33 29,600
1944 1944-04-27 26.20 26,500
1945 1945-02-21 16.96 8,800
1946 1946-01-07 21.89 15,200
1947 1947-04-03 15.60 7,620
1948 1948-07-11 16.50 8,400
1949 1948-11-27 27.30 29,600
1950 1950-03-07 9.58 2,950
1951 1951-03-20 6.47 1,430
1952 1952-03-25 18.00 9,800
1953 1953-05-05 16.30 8,390
1954 1953-12-05 20.40 12,400
1955 1955-04-15 12.17 4,740
1956 1956-03-17 13.64 5,890
1957 1957-04-06 19.10 11,100
1958 1958-03-08 23.70 20,400
1959 1959-03-07 9.70 2,930
1960 1960-04-04 15.06 7,250
1961 1961-02-25 25.82 25,500
1962 1962-04-01 14.53 6,700
1963 1963-01-21 14.12 6,340
1964 1964-04-09 28.18 32,200
1965 1965-03-19 13.39 6,030
1966 1966-03-04 20.14 12,500
1967 1967-01-03 9.72 3,080
1968 1968-03-13 14.42 6,620
1969 1969-04-19 14.46 6,650
1970 1970-03-21 19.13 11,500
1971 1971-03-03 21.02 13,400
1972 1972-03-03 10.75 3,650
1973 1973-04-01 18.98 11,000
1974 1974-01-31 9.97 3,200
1975 1975-04-15 18.65 10,600
1976 1976-05-16 17.00 9,050
1977 1977-03-31 15.35 7,480
1978 1978-01-26 21.63 14,700
1979 1979-04-05 20.01 12,000
1980 1980-03-30 16.26 8,220
1981 1981-04-02 22.23 16,000
1982 1982-02-04 17.29 9,330
1983 1983-03-07 17.61 9,630
1984 1984-03-26 13.13 5,480
1985 1985-07-29 10.06 3,230
1986 1986-03-20 15.39 7,500
1987 1987-03-01 14.49 6,680
1988 1988-02-05 11.37 4,130
1989 1989-06-16 16.10 8,870
1990 1990-03-17 26.87 28,400
1991 1991-03-30 18.68 11,700
1992 1992-01-14 14.03 6,760
1993 1992-11-26 24.50 22,400
1994 1994-07-08 24.83 23,200
1995 1995-02-18 12.94 6,240
1996 1996-03-07 17.60 10,600
1997 1997-04-29 14.79 7,810
1998 1998-03-09 24.07 21,500
1999 1999-03-15 9.93 3,930
2000 2000-03-21 7.83 2,580
2001 2001-03-05 21.21 15,600
2002 2002-04-14 6.84 1,930
2003 2003-07-02 14.39 7,460
2005 2005-03-28 22.23 17,600
2006 2006-02-26 11.33 4,970
2007 2007-03-03 11.71 5,270
2008 2008-04-06 6.27 1,600
2009 2009-03-29 15.11 8,100
2010 2009-11-11 20.12 13,700
2011 2011-03-11 6.47 1,710
2012 2012-02-20 7.65 2,450
2013 2013-02-13 16.10 9,050
2014 2014-04-07 19.64 12,900
2015 2015-05-30 11.96 5,470
2016 2015-12-24 26.31 26,800
2017 2017-01-04 14.25 8,350
2018 2018-06-18 11.18 4,860
2019 2018-12-29   14,100
?
  Peak Gage-Height Qualification Codes.
?
  Peak Streamflow Qualification Codes.